Time;durP1;ratioP1;P1;durP2;ratioP2;P2;SDS_P1;SDS_P2;PMS_P1;PMS_P2;Temp;Humidity;BMP_temperature;BMP_pressure;BME280_temperature;BME280_humidity;BME280_pressure;Samples;Min_cycle;Max_cycle;Signal;HPM_P1;HPM_P2
2023/03/12 00:01:00;;;;;;;9.93;5.22;;;12.10;96.60;;;;;;4965042;28;20050;-73
2023/03/12 00:03:26;;;;;;;11.43;4.43;;;12.10;96.70;;;;;;4970127;28;20042;-73
2023/03/12 00:05:51;;;;;;;11.70;4.85;;;12.00;96.80;;;;;;4970803;28;20034;-73
2023/03/12 00:08:17;;;;;;;14.60;5.00;;;12.00;96.80;;;;;;4973180;28;20038;-73
2023/03/12 00:10:42;;;;;;;18.27;4.93;;;12.00;96.60;;;;;;4973511;28;20034;-73
2023/03/12 00:13:08;;;;;;;13.27;4.57;;;12.10;96.80;;;;;;4969625;28;20034;-73
2023/03/12 00:15:38;;;;;;;14.82;5.57;;;12.10;96.90;;;;;;4978341;28;20222;-74
2023/03/12 00:18:04;;;;;;;12.23;5.03;;;12.10;96.90;;;;;;4976911;28;20034;-73
2023/03/12 00:20:29;;;;;;;16.10;4.85;;;12.00;97.00;;;;;;4973466;28;20030;-73
2023/03/12 00:22:55;;;;;;;15.57;4.63;;;12.00;97.20;;;;;;4969949;28;20034;-73
2023/03/12 00:25:21;;;;;;;18.77;4.72;;;11.90;97.30;;;;;;4975954;28;20022;-73
2023/03/12 00:27:46;;;;;;;15.60;4.35;;;11.80;97.40;;;;;;4979486;28;20068;-73
2023/03/12 00:30:12;;;;;;;15.80;5.30;;;11.90;97.40;;;;;;4974083;28;20089;-73
2023/03/12 00:32:38;;;;;;;22.15;4.30;;;11.80;97.50;;;;;;4982013;28;20049;-73
2023/03/12 00:35:05;;;;;;;14.75;4.82;;;11.80;97.50;;;;;;4973495;28;20031;-73
2023/03/12 00:37:32;;;;;;;19.05;5.20;;;11.80;97.60;;;;;;4977196;28;20122;-73
2023/03/12 00:39:58;;;;;;;12.38;4.38;;;11.70;97.70;;;;;;4972268;28;20038;-73
2023/03/12 00:42:24;;;;;;;14.35;4.47;;;11.70;97.70;;;;;;4973590;28;20043;-73
2023/03/12 00:44:49;;;;;;;10.80;4.55;;;11.60;97.80;;;;;;4983457;28;20354;-73
2023/03/12 00:47:15;;;;;;;16.75;4.65;;;11.60;97.90;;;;;;4980410;28;20117;-73
2023/03/12 00:49:41;;;;;;;17.13;4.85;;;11.50;98.00;;;;;;4975167;28;20038;-73
2023/03/12 00:52:06;;;;;;;15.52;4.88;;;11.50;98.20;;;;;;4973468;28;20117;-73
2023/03/12 00:54:32;;;;;;;13.82;4.60;;;11.40;98.20;;;;;;4981022;28;20045;-72
2023/03/12 00:56:57;;;;;;;14.05;4.10;;;11.30;98.20;;;;;;4977076;28;20038;-73
2023/03/12 00:59:23;;;;;;;12.45;4.90;;;11.20;98.50;;;;;;4982573;28;20509;-73
2023/03/12 01:01:49;;;;;;;14.48;4.25;;;11.20;98.40;;;;;;4982521;28;20497;-73
2023/03/12 01:04:16;;;;;;;16.90;5.60;;;11.10;98.50;;;;;;4978628;28;20046;-72
2023/03/12 01:06:42;;;;;;;11.85;4.68;;;11.10;98.60;;;;;;4977523;28;20042;-73
2023/03/12 01:09:09;;;;;;;13.10;5.40;;;11.10;98.50;;;;;;4977839;28;20026;-72
2023/03/12 01:11:36;;;;;;;13.52;4.72;;;11.10;98.40;;;;;;4980064;28;20061;-73
2023/03/12 01:14:03;;;;;;;11.15;4.97;;;11.20;98.20;;;;;;4984176;28;20477;-73
2023/03/12 01:16:29;;;;;;;13.52;5.28;;;11.40;98.00;;;;;;4980033;28;20106;-73
2023/03/12 01:18:56;;;;;;;12.93;5.50;;;11.10;98.10;;;;;;4982708;28;20162;-73
2023/03/12 01:21:23;;;;;;;16.67;5.90;;;11.10;98.50;;;;;;4982191;28;20072;-73
2023/03/12 01:23:48;;;;;;;12.75;5.40;;;11.00;98.30;;;;;;4973681;28;20031;-74
2023/03/12 01:26:14;;;;;;;16.23;4.95;;;10.90;98.50;;;;;;4981419;28;20473;-73
2023/03/12 01:28:40;;;;;;;11.95;4.72;;;10.80;98.70;;;;;;4978500;28;20022;-72
2023/03/12 01:31:11;;;;;;;15.07;5.20;;;10.60;98.80;;;;;;4978809;28;20161;-73
2023/03/12 01:33:37;;;;;;;14.55;5.80;;;10.40;99.30;;;;;;4979081;28;20031;-72
2023/03/12 01:36:03;;;;;;;12.77;4.05;;;10.50;99.30;;;;;;4974765;28;20789;-72
2023/03/12 01:38:29;;;;;;;16.20;5.03;;;10.60;99.30;;;;;;4972909;28;20047;-73
2023/03/12 01:40:55;;;;;;;17.70;4.68;;;10.30;99.40;;;;;;4979874;28;20039;-72
2023/03/12 01:43:25;;;;;;;14.98;4.28;;;10.30;99.60;;;;;;4981348;28;20044;-72
2023/03/12 01:46:06;;;;;;;19.92;5.93;;;10.30;99.60;;;;;;4974840;28;20389;-72
2023/03/12 01:48:37;;;;;;;13.88;5.15;;;10.10;99.90;;;;;;4975063;28;20038;-72
2023/03/12 01:51:04;;;;;;;14.15;4.57;;;10.10;99.80;;;;;;4984649;28;20064;-72
2023/03/12 01:53:31;;;;;;;13.00;4.93;;;9.90;99.90;;;;;;4974107;28;20470;-72
2023/03/12 01:56:00;;;;;;;13.85;5.70;;;9.80;99.80;;;;;;4982687;28;20038;-73
2023/03/12 01:58:27;;;;;;;10.07;4.05;;;9.70;99.90;;;;;;4979293;28;20038;-73
2023/03/12 02:00:54;;;;;;;10.25;4.43;;;9.60;99.90;;;;;;4976449;28;20108;-72
2023/03/12 02:03:20;;;;;;;12.65;4.93;;;9.50;99.90;;;;;;4970364;28;20409;-72
2023/03/12 02:05:51;;;;;;;13.45;5.40;;;9.50;99.90;;;;;;4976430;28;20027;-73
2023/03/12 02:08:17;;;;;;;14.88;6.00;;;9.30;99.90;;;;;;4978839;28;20042;-74
2023/03/12 02:10:44;;;;;;;13.45;5.95;;;9.20;99.90;;;;;;4977650;28;20026;-72
2023/03/12 02:13:11;;;;;;;13.25;5.35;;;9.40;99.90;;;;;;4975357;28;20211;-72
2023/03/12 02:15:37;;;;;;;14.48;6.45;;;9.30;99.90;;;;;;4981768;28;20433;-72
2023/03/12 02:18:10;;;;;;;15.98;5.07;;;9.30;99.90;;;;;;4977927;28;20042;-72
2023/03/12 02:20:51;;;;;;;17.73;6.57;;;9.30;99.90;;;;;;4977304;28;20026;-72
2023/03/12 02:23:35;;;;;;;15.52;5.35;;;9.20;99.90;;;;;;4978287;28;20107;-72
2023/03/12 02:26:02;;;;;;;12.88;5.90;;;9.30;99.90;;;;;;4973881;28;20031;-72
2023/03/12 02:28:28;;;;;;;16.42;5.88;;;9.50;99.90;;;;;;4971234;28;20141;-72
2023/03/12 02:31:01;;;;;;;17.92;5.75;;;9.60;99.90;;;;;;4976997;28;20058;-72
2023/03/12 02:33:27;;;;;;;16.88;5.40;;;9.60;99.90;;;;;;4974427;28;20058;-73
2023/03/12 02:35:53;;;;;;;13.77;5.25;;;9.70;99.90;;;;;;4978941;28;20062;-72
2023/03/12 02:38:37;;;;;;;17.83;6.05;;;9.60;99.90;;;;;;4972905;28;20058;-73
2023/03/12 02:41:16;;;;;;;14.98;6.00;;;9.70;99.90;;;;;;4979511;28;20066;-73
2023/03/12 02:43:46;;;;;;;11.95;6.25;;;9.80;99.90;;;;;;4975604;28;20122;-72
2023/03/12 02:46:12;;;;;;;18.55;6.10;;;10.00;99.90;;;;;;4970893;28;20173;-72
2023/03/12 02:48:38;;;;;;;10.27;4.82;;;10.10;99.90;;;;;;4972720;28;20382;-73
2023/03/12 02:51:04;;;;;;;12.50;5.20;;;10.10;99.90;;;;;;4977557;28;20026;-72
2023/03/12 02:53:30;;;;;;;13.13;5.95;;;10.00;99.90;;;;;;4977355;28;20090;-72
2023/03/12 02:55:56;;;;;;;11.05;4.78;;;9.90;99.90;;;;;;4971003;28;20460;-73
2023/03/12 02:58:21;;;;;;;8.90;5.05;;;9.90;99.90;;;;;;4979542;28;20034;-72
2023/03/12 03:00:47;;;;;;;14.43;5.75;;;10.00;99.90;;;;;;4934229;28;1220919;-72
2023/03/12 03:03:14;;;;;;;15.57;6.07;;;9.90;99.90;;;;;;4975543;28;20039;-72
2023/03/12 03:05:39;;;;;;;10.63;5.60;;;9.90;99.90;;;;;;4976055;28;20077;-72
2023/03/12 03:08:05;;;;;;;21.90;6.47;;;9.90;99.90;;;;;;4974066;28;20501;-72
2023/03/12 03:10:31;;;;;;;10.77;4.97;;;9.90;99.90;;;;;;4972742;28;20039;-72
2023/03/12 03:12:57;;;;;;;14.25;5.75;;;9.90;99.90;;;;;;4972071;28;20030;-72
2023/03/12 03:15:22;;;;;;;15.07;6.07;;;10.00;99.90;;;;;;4973838;28;20029;-73
2023/03/12 03:17:48;;;;;;;15.30;5.70;;;10.00;99.90;;;;;;4977347;28;20381;-72
2023/03/12 03:20:14;;;;;;;15.32;5.57;;;10.00;99.90;;;;;;4974995;28;20445;-72
2023/03/12 03:22:40;;;;;;;15.02;5.82;;;10.00;99.90;;;;;;4979391;28;20026;-72
2023/03/12 03:25:07;;;;;;;12.73;5.72;;;10.00;99.90;;;;;;4974199;28;20070;-72
2023/03/12 03:27:33;;;;;;;14.80;5.68;;;10.10;99.90;;;;;;4982952;28;20034;-73
2023/03/12 03:29:59;;;;;;;17.17;6.00;;;10.10;99.90;;;;;;4981896;28;20042;-72
2023/03/12 03:32:24;;;;;;;14.57;4.57;;;10.10;99.90;;;;;;4976637;28;20113;-72
2023/03/12 03:34:50;;;;;;;15.38;5.35;;;10.20;99.90;;;;;;4972109;28;20130;-72
2023/03/12 03:37:16;;;;;;;12.82;5.63;;;10.10;99.90;;;;;;4979686;28;20049;-73
2023/03/12 03:39:42;;;;;;;16.48;5.38;;;10.10;99.90;;;;;;4982253;28;20064;-72
2023/03/12 03:42:07;;;;;;;14.18;5.55;;;10.10;99.90;;;;;;4977045;28;20042;-72
2023/03/12 03:44:33;;;;;;;15.60;5.22;;;10.20;99.90;;;;;;4972323;28;20041;-72
2023/03/12 03:46:59;;;;;;;14.98;5.13;;;10.20;99.90;;;;;;4970507;28;20085;-72
2023/03/12 03:49:24;;;;;;;10.40;5.15;;;10.20;99.90;;;;;;4974287;28;20039;-72
2023/03/12 03:51:50;;;;;;;16.92;5.97;;;10.10;99.90;;;;;;4971027;28;20033;-72
2023/03/12 03:54:17;;;;;;;12.30;5.22;;;10.20;99.90;;;;;;4973148;28;20508;-72
2023/03/12 03:56:43;;;;;;;12.20;5.53;;;10.10;99.90;;;;;;4978209;28;20459;-72
2023/03/12 03:59:08;;;;;;;16.20;5.35;;;9.90;99.90;;;;;;4973499;28;20066;-72
2023/03/12 04:01:35;;;;;;;20.60;6.85;;;9.90;99.90;;;;;;4971866;28;20401;-73
2023/03/12 04:04:02;;;;;;;18.15;6.30;;;9.90;99.90;;;;;;4970196;28;20050;-73
2023/03/12 04:06:28;;;;;;;11.57;5.80;;;10.00;99.90;;;;;;4966303;28;20034;-72
2023/03/12 04:08:55;;;;;;;13.40;6.00;;;10.10;99.90;;;;;;4968025;28;20030;-72
2023/03/12 04:11:22;;;;;;;11.98;5.32;;;10.10;99.90;;;;;;4967727;28;20054;-73
2023/03/12 04:13:49;;;;;;;13.70;5.00;;;10.20;99.90;;;;;;4970605;28;20611;-73
2023/03/12 04:16:15;;;;;;;12.80;5.97;;;10.20;99.90;;;;;;4969248;28;20026;-72
2023/03/12 04:18:42;;;;;;;14.60;5.32;;;10.10;99.90;;;;;;4965167;28;20034;-72
2023/03/12 04:21:09;;;;;;;15.38;6.90;;;10.00;99.90;;;;;;4969282;28;20035;-73
2023/03/12 04:23:35;;;;;;;11.85;5.28;;;9.90;99.90;;;;;;4971287;28;20043;-73
2023/03/12 04:26:01;;;;;;;11.52;6.00;;;9.80;99.90;;;;;;4972965;28;20117;-73
2023/03/12 04:28:27;;;;;;;13.98;4.82;;;9.80;99.90;;;;;;4967391;28;20030;-72
2023/03/12 04:31:01;;;;;;;17.13;6.38;;;9.80;99.90;;;;;;4969045;28;20066;-72
2023/03/12 04:33:30;;;;;;;15.50;6.15;;;9.90;99.90;;;;;;4966966;28;20042;-73
2023/03/12 04:35:56;;;;;;;16.40;5.78;;;9.90;99.90;;;;;;4970099;28;20389;-73
2023/03/12 04:38:24;;;;;;;13.70;5.28;;;9.90;99.90;;;;;;4966809;28;20069;-73
2023/03/12 04:41:01;;;;;;;15.43;6.22;;;10.00;99.90;;;;;;4969866;28;20085;-73
2023/03/12 04:43:29;;;;;;;10.68;4.53;;;10.00;99.90;;;;;;4977376;28;20397;-73
2023/03/12 04:45:55;;;;;;;14.23;5.80;;;9.90;99.90;;;;;;4969388;28;20066;-73
2023/03/12 04:48:20;;;;;;;14.45;5.63;;;9.90;99.90;;;;;;4970651;28;20134;-73
2023/03/12 04:50:46;;;;;;;12.88;4.82;;;10.10;99.90;;;;;;4972273;28;22108;-72
2023/03/12 04:53:12;;;;;;;12.32;5.72;;;10.10;99.90;;;;;;4966040;28;20093;-73
2023/03/12 04:55:38;;;;;;;13.52;5.47;;;10.10;99.90;;;;;;4977453;28;20488;-73
2023/03/12 04:58:03;;;;;;;12.48;6.00;;;10.10;99.90;;;;;;4970614;28;20035;-72
2023/03/12 05:00:29;;;;;;;14.75;5.38;;;10.00;99.90;;;;;;4975069;28;20061;-73
2023/03/12 05:02:54;;;;;;;12.77;5.75;;;10.00;99.90;;;;;;4970215;28;20049;-73
2023/03/12 05:05:20;;;;;;;13.02;5.72;;;10.00;99.90;;;;;;4965754;28;20397;-72
2023/03/12 05:07:46;;;;;;;11.88;5.22;;;9.90;99.90;;;;;;4971632;28;20034;-73
2023/03/12 05:10:12;;;;;;;10.93;4.60;;;9.90;99.90;;;;;;4965421;28;20615;-73
2023/03/12 05:12:37;;;;;;;11.85;5.35;;;9.90;99.90;;;;;;4963758;28;20145;-72
2023/03/12 05:15:03;;;;;;;11.50;5.82;;;9.90;99.90;;;;;;4963783;28;20093;-73
2023/03/12 05:17:29;;;;;;;9.88;5.05;;;10.00;99.90;;;;;;4963470;28;20544;-73
2023/03/12 05:19:55;;;;;;;16.58;5.88;;;10.00;99.90;;;;;;4972283;28;20104;-73
2023/03/12 05:22:20;;;;;;;17.00;5.32;;;10.00;99.90;;;;;;4974496;28;20023;-73
2023/03/12 05:24:46;;;;;;;17.10;5.90;;;9.90;99.90;;;;;;4969394;28;20038;-73
2023/03/12 05:27:12;;;;;;;12.60;5.40;;;9.90;99.90;;;;;;4972666;28;20039;-73
2023/03/12 05:29:38;;;;;;;15.75;5.30;;;9.90;99.90;;;;;;4966967;28;20031;-73
2023/03/12 05:32:04;;;;;;;12.10;4.30;;;9.90;99.90;;;;;;4964824;28;20031;-72
2023/03/12 05:34:30;;;;;;;10.18;3.95;;;9.70;98.90;;;;;;4969307;28;20555;-72
2023/03/12 05:36:56;;;;;;;8.23;4.38;;;9.50;98.40;;;;;;4962787;28;20058;-72
2023/03/12 05:39:22;;;;;;;7.40;4.22;;;9.50;98.80;;;;;;4967150;28;20026;-73
2023/03/12 05:41:48;;;;;;;11.63;4.65;;;9.70;99.60;;;;;;4972018;28;20573;-72
2023/03/12 05:44:14;;;;;;;7.82;4.15;;;9.70;99.90;;;;;;4968141;28;20034;-72
2023/03/12 05:46:41;;;;;;;6.68;3.13;;;9.70;98.40;;;;;;4968294;28;20023;-72
2023/03/12 05:49:08;;;;;;;6.28;3.15;;;9.80;97.60;;;;;;4966999;28;20501;-74
2023/03/12 05:51:34;;;;;;;10.20;3.97;;;9.90;97.90;;;;;;4971071;28;20026;-75
2023/03/12 05:54:00;;;;;;;12.32;4.68;;;9.90;98.80;;;;;;4975273;28;20026;-72
2023/03/12 05:56:26;;;;;;;12.25;4.47;;;9.90;98.50;;;;;;4969858;28;20031;-72
2023/03/12 05:58:52;;;;;;;11.43;4.10;;;9.90;99.00;;;;;;4965980;28;20370;-72
2023/03/12 06:01:24;;;;;;;9.60;4.13;;;9.90;99.80;;;;;;4974206;28;20058;-72
2023/03/12 06:03:50;;;;;;;11.82;5.05;;;10.00;99.60;;;;;;4969357;28;20074;-72
2023/03/12 06:06:15;;;;;;;7.70;4.28;;;10.00;99.70;;;;;;4967034;28;20073;-72
2023/03/12 06:08:41;;;;;;;10.20;4.07;;;10.00;99.90;;;;;;4971191;28;20117;-73
2023/03/12 06:11:08;;;;;;;10.00;4.88;;;9.90;99.90;;;;;;4972515;28;20485;-72
2023/03/12 06:13:33;;;;;;;8.07;3.58;;;10.00;99.90;;;;;;4975299;28;20037;-72
2023/03/12 06:16:05;;;;;;;8.93;4.47;;;9.90;98.20;;;;;;4974286;28;20394;-72
2023/03/12 06:18:32;;;;;;;11.85;4.20;;;9.90;98.90;;;;;;4976114;28;20042;-72
2023/03/12 06:21:31;;;;;;;7.45;4.15;;;9.80;99.40;;;;;;4978008;28;20031;-73
2023/03/12 06:23:58;;;;;;;7.38;3.47;;;9.90;98.60;;;;;;4960201;28;20055;-73
2023/03/12 06:26:24;;;;;;;13.23;4.60;;;9.90;98.50;;;;;;4977324;28;20026;-73
2023/03/12 06:28:51;;;;;;;6.70;3.33;;;9.80;98.70;;;;;;4976203;28;20042;-73
2023/03/12 06:31:18;;;;;;;8.88;3.75;;;9.80;98.40;;;;;;4968674;28;20027;-73
2023/03/12 06:33:44;;;;;;;12.45;3.80;;;9.80;97.60;;;;;;4974994;28;20038;-73
2023/03/12 06:36:17;;;;;;;10.20;4.70;;;9.80;97.70;;;;;;4974542;28;20038;-73
2023/03/12 06:38:42;;;;;;;11.60;4.20;;;9.80;98.40;;;;;;4972136;28;20106;-73
2023/03/12 06:41:14;;;;;;;9.80;4.10;;;9.90;98.80;;;;;;4977893;28;20112;-73
2023/03/12 06:43:41;;;;;;;8.70;4.75;;;9.90;98.90;;;;;;4975385;28;20042;-74
2023/03/12 06:46:08;;;;;;;7.75;3.90;;;9.90;98.90;;;;;;4979732;28;20102;-76
2023/03/12 06:48:40;;;;;;;9.88;3.90;;;10.00;99.10;;;;;;4976088;28;20022;-74
2023/03/12 06:51:10;;;;;;;8.90;3.97;;;9.90;98.00;;;;;;4969611;28;20120;-74
2023/03/12 06:53:37;;;;;;;7.57;3.67;;;10.10;98.30;;;;;;4971255;28;20824;-77
2023/03/12 06:56:03;;;;;;;10.95;4.22;;;10.10;98.70;;;;;;4971256;28;20966;-77
2023/03/12 06:58:29;;;;;;;8.02;3.33;;;10.10;98.80;;;;;;4970432;28;20543;-76
2023/03/12 07:00:55;;;;;;;8.70;3.55;;;10.20;98.50;;;;;;4971165;28;20055;-76
2023/03/12 07:03:20;;;;;;;12.05;4.28;;;10.20;97.90;;;;;;4970420;28;20434;-80
2023/03/12 07:05:49;;;;;;;7.95;3.60;;;10.30;97.70;;;;;;4974586;28;20035;-77
2023/03/12 07:08:17;;;;;;;10.23;4.75;;;10.30;97.60;;;;;;4965512;28;20047;-78
2023/03/12 07:10:43;;;;;;;16.58;8.73;;;10.40;97.70;;;;;;4965860;28;20403;-78
2023/03/12 07:13:09;;;;;;;13.30;4.88;;;10.60;98.20;;;;;;4968644;28;20154;-76
2023/03/12 07:15:36;;;;;;;13.13;5.38;;;10.60;97.60;;;;;;4971207;28;20026;-77
2023/03/12 07:18:07;;;;;;;14.73;7.25;;;10.60;97.40;;;;;;4967560;28;20035;-77
2023/03/12 07:20:35;;;;;;;11.75;6.03;;;10.70;97.00;;;;;;4971187;28;20026;-76
2023/03/12 07:23:01;;;;;;;12.30;5.15;;;10.80;97.40;;;;;;4968761;28;20056;-76
2023/03/12 07:25:26;;;;;;;6.82;4.07;;;10.80;97.20;;;;;;4965288;28;20022;-77
2023/03/12 07:27:52;;;;;;;11.68;3.70;;;10.80;97.30;;;;;;4968554;28;20027;-78
2023/03/12 07:30:18;;;;;;;6.43;4.22;;;10.70;96.70;;;;;;4965642;28;20031;-81
2023/03/12 07:32:43;;;;;;;7.65;4.15;;;10.70;96.50;;;;;;4971440;28;20121;-78
2023/03/12 07:35:09;;;;;;;12.70;6.30;;;10.80;96.70;;;;;;4971497;28;20038;-78
2023/03/12 07:37:35;;;;;;;10.93;5.40;;;10.90;97.00;;;;;;4969940;28;20071;-77
2023/03/12 07:40:04;;;;;;;12.48;6.75;;;10.80;96.90;;;;;;4969161;28;20757;-78
2023/03/12 07:42:29;;;;;;;12.55;7.32;;;10.90;96.90;;;;;;4968231;28;20458;-76
2023/03/12 07:44:55;;;;;;;9.10;4.97;;;10.90;97.00;;;;;;4972957;28;20082;-77
2023/03/12 07:47:21;;;;;;;13.32;6.22;;;10.60;96.90;;;;;;4966383;28;21089;-76
2023/03/12 07:49:47;;;;;;;9.48;4.85;;;10.60;97.20;;;;;;4973215;28;20874;-77
2023/03/12 07:52:12;;;;;;;10.60;5.95;;;10.60;97.20;;;;;;4967860;28;20477;-76
2023/03/12 07:54:38;;;;;;;11.65;5.28;;;10.70;97.10;;;;;;4970978;28;20022;-74
2023/03/12 07:57:04;;;;;;;16.20;7.18;;;10.90;97.10;;;;;;4965901;28;20034;-76
2023/03/12 07:59:30;;;;;;;11.07;5.45;;;11.00;96.80;;;;;;4965422;28;20031;-74
2023/03/12 08:01:56;;;;;;;14.60;5.85;;;11.00;97.00;;;;;;4961829;28;20054;-75
2023/03/12 08:04:22;;;;;;;14.88;4.70;;;11.10;96.90;;;;;;4963697;28;20175;-75
2023/03/12 08:06:48;;;;;;;13.45;4.60;;;11.10;96.90;;;;;;4965834;28;20113;-76
2023/03/12 08:09:13;;;;;;;12.40;4.65;;;11.20;97.00;;;;;;4964948;28;20209;-75
2023/03/12 08:11:39;;;;;;;14.75;5.30;;;11.20;97.10;;;;;;4966025;28;20018;-75
2023/03/12 08:14:05;;;;;;;13.10;5.10;;;11.40;97.20;;;;;;4970166;28;20065;-75
2023/03/12 08:16:30;;;;;;;12.40;5.30;;;11.40;97.20;;;;;;4963162;28;20045;-75
2023/03/12 08:18:56;;;;;;;9.45;4.65;;;11.40;97.40;;;;;;4966923;28;20085;-74
2023/03/12 08:21:22;;;;;;;9.55;5.60;;;11.20;97.30;;;;;;4964751;28;20474;-74
2023/03/12 08:23:48;;;;;;;13.65;5.45;;;11.00;97.60;;;;;;4961795;28;20041;-74
2023/03/12 08:26:13;;;;;;;15.90;5.63;;;11.00;97.90;;;;;;4973781;28;20030;-75
2023/03/12 08:28:39;;;;;;;11.68;5.65;;;11.10;97.70;;;;;;4964285;28;20027;-75
2023/03/12 08:31:05;;;;;;;10.52;5.13;;;11.00;97.60;;;;;;4963927;28;20713;-75
2023/03/12 08:33:31;;;;;;;12.13;4.75;;;11.00;97.30;;;;;;4966186;28;20097;-75
2023/03/12 08:35:57;;;;;;;10.02;4.85;;;11.20;97.40;;;;;;4970895;28;20031;-74
2023/03/12 08:38:23;;;;;;;11.07;5.20;;;11.30;97.40;;;;;;4963055;28;20026;-75
2023/03/12 08:40:59;;;;;;;12.13;5.38;;;11.50;97.40;;;;;;4962621;28;20035;-75
2023/03/12 08:43:25;;;;;;;16.10;6.03;;;11.50;97.40;;;;;;4962223;28;20050;-75
2023/03/12 08:45:59;;;;;;;14.32;5.15;;;11.60;97.40;;;;;;4962606;28;20558;-75
2023/03/12 08:48:25;;;;;;;11.43;5.38;;;11.70;97.30;;;;;;4965246;28;20050;-74
2023/03/12 08:50:53;;;;;;;12.45;5.20;;;11.60;97.30;;;;;;4962387;28;20489;-75
2023/03/12 08:53:18;;;;;;;11.90;5.43;;;11.80;97.30;;;;;;4974686;28;20488;-75
2023/03/12 08:55:44;;;;;;;13.23;6.53;;;11.80;97.30;;;;;;4966272;28;20081;-75
2023/03/12 08:58:10;;;;;;;12.68;5.45;;;11.90;97.40;;;;;;4963808;28;20750;-75
2023/03/12 09:00:36;;;;;;;15.73;6.40;;;11.90;97.10;;;;;;4970731;28;20038;-75
2023/03/12 09:03:01;;;;;;;12.07;5.75;;;12.00;97.20;;;;;;4966157;28;20270;-75
2023/03/12 09:05:28;;;;;;;12.68;5.57;;;12.00;97.10;;;;;;4966471;28;20035;-75
2023/03/12 09:07:55;;;;;;;10.90;5.85;;;11.90;97.30;;;;;;4968676;28;20563;-75
2023/03/12 09:10:21;;;;;;;11.43;4.78;;;12.10;97.30;;;;;;4969927;28;20564;-75
2023/03/12 09:12:46;;;;;;;13.20;6.13;;;12.00;96.90;;;;;;4972752;28;20041;-75
2023/03/12 09:15:12;;;;;;;13.32;5.72;;;12.00;97.00;;;;;;4968396;28;20047;-75
2023/03/12 09:17:38;;;;;;;17.30;6.13;;;11.90;97.30;;;;;;4969197;28;20038;-75
2023/03/12 09:20:08;;;;;;;11.73;5.82;;;11.90;97.30;;;;;;4982655;28;20030;-75
2023/03/12 09:22:38;;;;;;;15.52;6.38;;;11.90;97.20;;;;;;4980703;28;20027;-75
2023/03/12 09:25:05;;;;;;;13.55;6.20;;;12.00;97.40;;;;;;4969278;28;20074;-74
2023/03/12 09:27:45;;;;;;;13.70;7.07;;;12.20;97.40;;;;;;4969389;28;20440;-74
2023/03/12 09:30:14;;;;;;;13.88;5.95;;;12.40;97.20;;;;;;4969844;28;20166;-74
2023/03/12 09:32:40;;;;;;;14.93;5.95;;;12.30;97.10;;;;;;4980485;28;20377;-74
2023/03/12 09:35:06;;;;;;;12.00;6.13;;;12.30;97.20;;;;;;4977721;28;20030;-74
2023/03/12 09:37:33;;;;;;;13.65;6.47;;;12.30;96.90;;;;;;4984747;28;20080;-75
2023/03/12 09:39:59;;;;;;;11.95;6.45;;;12.50;96.60;;;;;;4988585;28;20713;-74
2023/03/12 09:42:35;;;;;;;13.40;5.35;;;12.50;96.50;;;;;;4988807;28;20139;-75
2023/03/12 09:45:04;;;;;;;12.30;5.57;;;12.40;96.40;;;;;;4991391;28;20060;-74
2023/03/12 09:47:34;;;;;;;14.98;5.78;;;12.60;96.10;;;;;;4991567;28;20466;-74
2023/03/12 09:50:12;;;;;;;18.27;5.55;;;13.10;96.30;;;;;;4991494;28;20018;-74
2023/03/12 09:52:51;;;;;;;8.95;4.80;;;12.80;95.20;;;;;;4991204;28;20037;-75
2023/03/12 09:55:20;;;;;;;14.82;5.97;;;12.60;95.30;;;;;;4990952;28;20039;-74
2023/03/12 09:57:49;;;;;;;11.57;4.50;;;12.70;95.70;;;;;;4990706;28;20121;-74
2023/03/12 10:00:19;;;;;;;13.60;5.30;;;13.10;95.50;;;;;;4991253;28;20629;-74
2023/03/12 10:03:03;;;;;;;13.75;4.97;;;13.30;95.00;;;;;;4990875;28;20121;-74
2023/03/12 10:05:45;;;;;;;10.13;4.68;;;13.50;94.90;;;;;;4990699;28;20040;-74
2023/03/12 10:08:15;;;;;;;13.07;4.97;;;13.50;94.70;;;;;;4991259;28;20049;-74
2023/03/12 10:11:11;;;;;;;11.63;4.28;;;13.40;94.80;;;;;;4987355;28;20085;-75
2023/03/12 10:13:43;;;;;;;11.00;4.47;;;13.40;95.00;;;;;;4971887;28;20022;-74
2023/03/12 10:16:34;;;;;;;13.00;4.50;;;13.30;94.60;;;;;;4970567;28;20038;-75
2023/03/12 10:19:20;;;;;;;8.93;3.80;;;13.30;94.20;;;;;;4972679;28;20026;-74
2023/03/12 10:22:27;;;;;;;14.48;4.18;;;13.30;94.00;;;;;;4974047;28;20042;-75
2023/03/12 10:25:05;;;;;;;8.57;3.80;;;13.60;95.20;;;;;;4934927;28;20146;-74
2023/03/12 10:27:35;;;;;;;8.95;3.30;;;13.80;93.70;;;;;;4975649;28;20401;-74
2023/03/12 10:30:02;;;;;;;8.80;3.72;;;14.00;93.60;;;;;;4979079;28;20038;-75
2023/03/12 10:32:45;;;;;;;11.02;3.40;;;13.90;92.90;;;;;;4970347;28;20030;-74
2023/03/12 10:35:20;;;;;;;5.82;3.05;;;13.90;93.10;;;;;;4977556;28;20039;-74
2023/03/12 10:38:16;;;;;;;9.35;3.30;;;14.20;93.10;;;;;;4970123;28;20182;-74
2023/03/12 10:40:41;;;;;;;9.48;3.60;;;14.50;92.70;;;;;;4967050;28;20043;-74
2023/03/12 10:43:08;;;;;;;10.38;3.38;;;14.70;92.10;;;;;;4973632;28;20096;-74
2023/03/12 10:45:58;;;;;;;9.15;3.00;;;14.70;92.00;;;;;;4969723;28;20030;-73
2023/03/12 10:48:24;;;;;;;7.50;2.72;;;14.70;91.40;;;;;;4979764;28;20031;-76
2023/03/12 10:51:11;;;;;;;7.65;3.17;;;15.00;91.80;;;;;;4979106;28;20038;-75
2023/03/12 10:53:43;;;;;;;7.38;3.55;;;15.00;91.40;;;;;;4966395;28;20114;-77
2023/03/12 10:56:15;;;;;;;4.90;2.90;;;15.10;91.00;;;;;;4971231;28;20042;-76
2023/03/12 10:58:42;;;;;;;8.88;3.45;;;15.00;91.20;;;;;;4968854;28;20237;-76
2023/03/12 11:01:14;;;;;;;9.30;3.03;;;15.20;91.20;;;;;;4968525;28;20496;-75
2023/03/12 11:03:40;;;;;;;10.50;3.85;;;15.30;91.50;;;;;;4964840;28;20046;-77
2023/03/12 11:06:10;;;;;;;8.27;3.60;;;15.40;90.90;;;;;;4970468;28;20030;-75
2023/03/12 11:08:36;;;;;;;7.28;2.70;;;15.40;90.70;;;;;;4968370;28;20069;-76
2023/03/12 11:11:03;;;;;;;8.27;3.90;;;15.50;90.60;;;;;;4968098;28;20034;-75
2023/03/12 11:13:40;;;;;;;8.82;3.33;;;15.60;90.80;;;;;;4974198;28;20038;-76
2023/03/12 11:16:15;;;;;;;8.38;3.22;;;15.90;90.00;;;;;;4974393;28;20034;-75
2023/03/12 11:19:00;;;;;;;6.25;3.25;;;15.70;90.90;;;;;;4986216;28;20059;-76
2023/03/12 11:21:27;;;;;;;8.25;2.50;;;15.70;90.30;;;;;;4988229;28;20651;-76
2023/03/12 11:23:55;;;;;;;8.35;3.17;;;15.70;90.10;;;;;;4987333;28;20049;-76
2023/03/12 11:26:24;;;;;;;11.95;2.92;;;15.70;90.00;;;;;;4988513;28;20049;-76
2023/03/12 11:28:55;;;;;;;5.32;2.65;;;15.90;90.40;;;;;;4989025;28;20034;-76
2023/03/12 11:31:26;;;;;;;6.07;2.40;;;16.30;90.00;;;;;;4985716;28;20113;-76
2023/03/12 11:33:56;;;;;;;8.27;2.78;;;16.20;88.40;;;;;;4989336;28;20076;-76
2023/03/12 11:37:03;;;;;;;7.20;3.15;;;16.10;88.90;;;;;;4989205;28;20492;-76
2023/03/12 11:39:42;;;;;;;7.55;2.55;;;16.10;89.70;;;;;;4989407;28;20057;-76
2023/03/12 11:42:31;;;;;;;8.52;3.03;;;16.00;89.40;;;;;;4989799;28;20096;-76
2023/03/12 11:45:20;;;;;;;5.05;2.60;;;16.20;89.50;;;;;;4971869;28;20566;-76
2023/03/12 11:47:48;;;;;;;5.80;2.80;;;16.20;89.00;;;;;;4973024;28;20132;-76
2023/03/12 11:50:28;;;;;;;6.00;2.65;;;16.40;90.00;;;;;;4973995;28;20089;-75
2023/03/12 11:53:09;;;;;;;8.23;3.28;;;16.40;88.00;;;;;;4975202;28;20027;-76
2023/03/12 11:55:47;;;;;;;16.02;3.45;;;16.20;88.20;;;;;;4975367;28;20023;-76
2023/03/12 11:58:30;;;;;;;7.25;2.70;;;16.50;89.40;;;;;;4975557;28;20050;-75
2023/03/12 12:01:05;;;;;;;5.70;2.30;;;16.90;88.90;;;;;;4967210;28;20648;-76
2023/03/12 12:03:43;;;;;;;6.72;2.80;;;17.00;89.20;;;;;;4974750;28;20134;-77
2023/03/12 12:06:21;;;;;;;9.00;3.63;;;16.90;88.70;;;;;;4977045;28;20031;-76
2023/03/12 12:09:04;;;;;;;6.75;3.55;;;17.00;87.50;;;;;;4977740;28;20030;-76
2023/03/12 12:11:44;;;;;;;13.82;6.10;;;16.90;87.80;;;;;;4967952;28;20121;-76
2023/03/12 12:14:18;;;;;;;10.77;3.83;;;16.90;86.60;;;;;;4973705;28;20026;-76
2023/03/12 12:17:06;;;;;;;50.22;6.57;;;17.10;88.50;;;;;;4985329;28;20042;-76
2023/03/12 12:19:37;;;;;;;11.02;5.13;;;17.10;86.90;;;;;;4966409;28;20027;-76
2023/03/12 12:22:38;;;;;;;11.00;4.45;;;17.20;86.00;;;;;;4965431;28;20046;-76
2023/03/12 12:25:19;;;;;;;8.07;2.53;;;17.30;86.80;;;;;;4973690;28;20042;-78
2023/03/12 12:28:10;;;;;;;9.55;4.60;;;17.40;86.90;;;;;;4968302;28;20690;-74
2023/03/12 12:30:44;;;;;;;5.55;3.47;;;17.20;86.10;;;;;;4967591;28;20022;-77
2023/03/12 12:33:10;;;;;;;5.60;2.50;;;16.80;86.60;;;;;;4966309;28;20097;-73
2023/03/12 12:35:44;;;;;;;8.82;2.95;;;17.00;87.40;;;;;;4962660;28;20105;-73
2023/03/12 12:38:20;;;;;;;8.55;2.80;;;17.20;88.20;;;;;;4963251;28;20039;-73
2023/03/12 12:40:55;;;;;;;6.10;2.50;;;17.10;86.90;;;;;;4967680;28;20492;-74
2023/03/12 12:43:38;;;;;;;7.88;3.00;;;17.20;85.90;;;;;;4968327;28;20061;-74
2023/03/12 12:46:17;;;;;;;5.68;2.75;;;17.10;85.70;;;;;;4969918;28;20031;-75
2023/03/12 12:48:53;;;;;;;5.22;2.08;;;17.10;86.40;;;;;;4966537;28;20073;-73
2023/03/12 12:51:23;;;;;;;6.03;2.30;;;17.10;86.30;;;;;;4971332;28;20093;-73